TAF KPQI
KPQI 270520Z 2706/2806 32004KT 6SM -SN BR SCT008 OVC015 FM271200 31010KT 1SM -SN BLSN OVC010 FM271500 29012G20KT 2SM -SHSN OVC015 FM271800 27014G24KT 3SM -SHSN BLSN OVC018 FM272100 26013G23KT 6SM BLSN OVC025=
METAR KPQI
WC KPQI
WS KPQI
WV KPQI